sensor_id;sensor_type;location;lat;lon;timestamp;P1;durP1;ratioP1;P2;durP2;ratioP2
57325;SDS011;43161;50.950;18.224;2022-12-15T00:00:44;102.80;;;36.40;;
57325;SDS011;43161;50.950;18.224;2022-12-15T00:03:27;108.50;;;41.60;;
57325;SDS011;43161;50.950;18.224;2022-12-15T00:06:12;116.70;;;43.50;;
57325;SDS011;43161;50.950;18.224;2022-12-15T00:08:56;118.70;;;48.50;;
57325;SDS011;43161;50.950;18.224;2022-12-15T00:11:40;116.50;;;44.30;;
57325;SDS011;43161;50.950;18.224;2022-12-15T00:14:23;121.10;;;46.00;;
57325;SDS011;43161;50.950;18.224;2022-12-15T00:17:07;116.00;;;43.40;;
57325;SDS011;43161;50.950;18.224;2022-12-15T00:19:51;121.30;;;46.40;;
57325;SDS011;43161;50.950;18.224;2022-12-15T00:22:35;113.00;;;42.30;;
57325;SDS011;43161;50.950;18.224;2022-12-15T00:25:19;100.80;;;43.00;;
57325;SDS011;43161;50.950;18.224;2022-12-15T00:28:03;107.50;;;41.80;;
57325;SDS011;43161;50.950;18.224;2022-12-15T00:30:48;99.00;;;39.90;;
57325;SDS011;43161;50.950;18.224;2022-12-15T00:33:31;94.80;;;37.80;;
57325;SDS011;43161;50.950;18.224;2022-12-15T00:36:15;97.80;;;40.10;;
57325;SDS011;43161;50.950;18.224;2022-12-15T00:39:00;90.20;;;37.90;;
57325;SDS011;43161;50.950;18.224;2022-12-15T00:41:26;81.40;;;34.80;;
57325;SDS011;43161;50.950;18.224;2022-12-15T00:43:51;79.00;;;35.40;;
57325;SDS011;43161;50.950;18.224;2022-12-15T00:46:17;77.90;;;36.20;;
57325;SDS011;43161;50.950;18.224;2022-12-15T00:49:01;76.40;;;33.50;;
57325;SDS011;43161;50.950;18.224;2022-12-15T00:51:27;66.80;;;29.40;;
57325;SDS011;43161;50.950;18.224;2022-12-15T00:54:11;72.70;;;31.40;;
57325;SDS011;43161;50.950;18.224;2022-12-15T00:56:55;71.40;;;30.80;;
57325;SDS011;43161;50.950;18.224;2022-12-15T00:59:39;74.40;;;33.40;;
57325;SDS011;43161;50.950;18.224;2022-12-15T01:02:23;70.70;;;28.00;;
57325;SDS011;43161;50.950;18.224;2022-12-15T01:05:08;65.50;;;30.60;;
57325;SDS011;43161;50.950;18.224;2022-12-15T01:07:52;70.30;;;29.30;;
57325;SDS011;43161;50.950;18.224;2022-12-15T01:10:36;68.60;;;30.30;;
57325;SDS011;43161;50.950;18.224;2022-12-15T01:13:19;64.30;;;30.20;;
57325;SDS011;43161;50.950;18.224;2022-12-15T01:16:08;66.70;;;32.40;;
57325;SDS011;43161;50.950;18.224;2022-12-15T01:18:54;69.20;;;31.50;;
57325;SDS011;43161;50.950;18.224;2022-12-15T01:21:38;65.50;;;29.30;;
57325;SDS011;43161;50.950;18.224;2022-12-15T01:24:04;69.10;;;30.20;;
57325;SDS011;43161;50.950;18.224;2022-12-15T01:26:30;70.30;;;32.20;;
57325;SDS011;43161;50.950;18.224;2022-12-15T01:28:55;66.50;;;31.00;;
57325;SDS011;43161;50.950;18.224;2022-12-15T01:31:21;63.50;;;30.70;;
57325;SDS011;43161;50.950;18.224;2022-12-15T01:33:46;61.00;;;26.00;;
57325;SDS011;43161;50.950;18.224;2022-12-15T01:36:13;65.90;;;30.10;;
57325;SDS011;43161;50.950;18.224;2022-12-15T01:38:39;63.10;;;28.60;;
57325;SDS011;43161;50.950;18.224;2022-12-15T01:41:05;65.70;;;28.30;;
57325;SDS011;43161;50.950;18.224;2022-12-15T01:43:35;71.60;;;31.80;;
57325;SDS011;43161;50.950;18.224;2022-12-15T01:46:03;66.60;;;30.40;;
57325;SDS011;43161;50.950;18.224;2022-12-15T01:56:49;81.60;;;35.20;;
57325;SDS011;43161;50.950;18.224;2022-12-15T01:59:22;76.80;;;34.40;;
57325;SDS011;43161;50.950;18.224;2022-12-15T02:01:51;72.80;;;32.10;;
57325;SDS011;43161;50.950;18.224;2022-12-15T02:04:17;72.30;;;34.90;;
57325;SDS011;43161;50.950;18.224;2022-12-15T02:06:44;69.60;;;34.00;;
57325;SDS011;43161;50.950;18.224;2022-12-15T02:09:09;64.80;;;26.90;;
57325;SDS011;43161;50.950;18.224;2022-12-15T02:17:18;72.60;;;33.20;;
57325;SDS011;43161;50.950;18.224;2022-12-15T02:34:25;69.00;;;35.00;;
57325;SDS011;43161;50.950;18.224;2022-12-15T02:36:56;68.30;;;33.40;;
57325;SDS011;43161;50.950;18.224;2022-12-15T02:39:24;70.20;;;33.30;;
57325;SDS011;43161;50.950;18.224;2022-12-15T02:41:50;74.80;;;34.70;;
57325;SDS011;43161;50.950;18.224;2022-12-15T02:44:19;75.70;;;33.60;;
57325;SDS011;43161;50.950;18.224;2022-12-15T02:49:44;76.20;;;33.70;;
57325;SDS011;43161;50.950;18.224;2022-12-15T02:58:04;70.00;;;34.50;;
57325;SDS011;43161;50.950;18.224;2022-12-15T03:00:51;73.90;;;35.10;;
57325;SDS011;43161;50.950;18.224;2022-12-15T03:03:22;73.90;;;36.50;;
57325;SDS011;43161;50.950;18.224;2022-12-15T03:05:50;69.30;;;31.40;;
57325;SDS011;43161;50.950;18.224;2022-12-15T03:08:21;71.70;;;35.50;;
57325;SDS011;43161;50.950;18.224;2022-12-15T03:10:50;76.30;;;37.70;;
57325;SDS011;43161;50.950;18.224;2022-12-15T03:13:17;76.20;;;35.30;;
57325;SDS011;43161;50.950;18.224;2022-12-15T03:15:42;72.20;;;34.90;;
57325;SDS011;43161;50.950;18.224;2022-12-15T03:18:08;73.00;;;36.30;;
57325;SDS011;43161;50.950;18.224;2022-12-15T03:20:33;71.70;;;35.40;;
57325;SDS011;43161;50.950;18.224;2022-12-15T03:22:59;71.30;;;34.50;;
57325;SDS011;43161;50.950;18.224;2022-12-15T03:25:26;72.20;;;35.60;;
57325;SDS011;43161;50.950;18.224;2022-12-15T03:27:52;68.90;;;36.00;;
57325;SDS011;43161;50.950;18.224;2022-12-15T03:30:18;68.90;;;31.30;;
57325;SDS011;43161;50.950;18.224;2022-12-15T03:32:43;75.70;;;35.80;;
57325;SDS011;43161;50.950;18.224;2022-12-15T03:35:09;71.20;;;34.70;;
57325;SDS011;43161;50.950;18.224;2022-12-15T03:37:37;71.60;;;36.30;;
57325;SDS011;43161;50.950;18.224;2022-12-15T03:40:04;70.00;;;28.70;;
57325;SDS011;43161;50.950;18.224;2022-12-15T03:42:30;71.80;;;35.70;;
57325;SDS011;43161;50.950;18.224;2022-12-15T03:45:18;70.50;;;35.40;;
57325;SDS011;43161;50.950;18.224;2022-12-15T03:47:47;64.30;;;29.10;;
57325;SDS011;43161;50.950;18.224;2022-12-15T03:50:15;64.60;;;27.40;;
57325;SDS011;43161;50.950;18.224;2022-12-15T03:52:42;63.60;;;28.20;;
57325;SDS011;43161;50.950;18.224;2022-12-15T03:55:09;73.80;;;35.10;;
57325;SDS011;43161;50.950;18.224;2022-12-15T03:57:35;72.40;;;29.00;;
57325;SDS011;43161;50.950;18.224;2022-12-15T04:00:03;71.20;;;32.60;;
57325;SDS011;43161;50.950;18.224;2022-12-15T04:02:29;69.30;;;27.80;;
57325;SDS011;43161;50.950;18.224;2022-12-15T04:04:55;68.40;;;27.60;;
57325;SDS011;43161;50.950;18.224;2022-12-15T04:07:20;76.90;;;31.20;;
57325;SDS011;43161;50.950;18.224;2022-12-15T04:09:46;77.50;;;32.90;;
57325;SDS011;43161;50.950;18.224;2022-12-15T04:12:11;83.90;;;32.20;;
57325;SDS011;43161;50.950;18.224;2022-12-15T04:14:37;83.00;;;32.90;;
57325;SDS011;43161;50.950;18.224;2022-12-15T04:17:07;85.90;;;30.20;;
57325;SDS011;43161;50.950;18.224;2022-12-15T04:19:36;78.80;;;35.40;;
57325;SDS011;43161;50.950;18.224;2022-12-15T04:22:20;84.00;;;33.70;;
57325;SDS011;43161;50.950;18.224;2022-12-15T04:24:46;89.10;;;37.30;;
57325;SDS011;43161;50.950;18.224;2022-12-15T04:27:30;80.70;;;30.60;;
57325;SDS011;43161;50.950;18.224;2022-12-15T04:30:14;81.40;;;31.40;;
57325;SDS011;43161;50.950;18.224;2022-12-15T04:32:58;82.50;;;34.20;;
57325;SDS011;43161;50.950;18.224;2022-12-15T04:35:42;71.20;;;28.20;;
57325;SDS011;43161;50.950;18.224;2022-12-15T04:38:27;82.90;;;38.90;;
57325;SDS011;43161;50.950;18.224;2022-12-15T04:41:12;85.20;;;32.90;;
57325;SDS011;43161;50.950;18.224;2022-12-15T04:43:56;73.80;;;29.50;;
57325;SDS011;43161;50.950;18.224;2022-12-15T04:46:40;79.10;;;30.90;;
57325;SDS011;43161;50.950;18.224;2022-12-15T04:49:24;70.60;;;29.70;;
57325;SDS011;43161;50.950;18.224;2022-12-15T04:52:08;86.00;;;32.50;;
57325;SDS011;43161;50.950;18.224;2022-12-15T04:54:52;82.30;;;31.20;;
57325;SDS011;43161;50.950;18.224;2022-12-15T04:57:36;78.10;;;33.60;;
57325;SDS011;43161;50.950;18.224;2022-12-15T05:00:20;76.70;;;28.80;;
57325;SDS011;43161;50.950;18.224;2022-12-15T05:03:04;73.40;;;29.00;;
57325;SDS011;43161;50.950;18.224;2022-12-15T05:05:49;78.30;;;31.30;;
57325;SDS011;43161;50.950;18.224;2022-12-15T05:08:33;79.20;;;31.70;;
57325;SDS011;43161;50.950;18.224;2022-12-15T05:11:17;82.30;;;32.40;;
57325;SDS011;43161;50.950;18.224;2022-12-15T05:14:01;81.70;;;32.10;;
57325;SDS011;43161;50.950;18.224;2022-12-15T05:16:46;80.20;;;33.20;;
57325;SDS011;43161;50.950;18.224;2022-12-15T05:19:30;88.90;;;37.40;;
57325;SDS011;43161;50.950;18.224;2022-12-15T05:22:14;89.80;;;40.10;;
57325;SDS011;43161;50.950;18.224;2022-12-15T05:24:58;83.00;;;31.30;;
57325;SDS011;43161;50.950;18.224;2022-12-15T05:27:42;78.50;;;33.40;;
57325;SDS011;43161;50.950;18.224;2022-12-15T05:30:26;84.60;;;35.30;;
57325;SDS011;43161;50.950;18.224;2022-12-15T05:33:11;84.30;;;33.10;;
57325;SDS011;43161;50.950;18.224;2022-12-15T05:35:36;76.90;;;30.70;;
57325;SDS011;43161;50.950;18.224;2022-12-15T05:38:03;88.60;;;38.90;;
57325;SDS011;43161;50.950;18.224;2022-12-15T05:40:29;89.40;;;38.30;;
57325;SDS011;43161;50.950;18.224;2022-12-15T05:42:58;90.90;;;39.70;;
57325;SDS011;43161;50.950;18.224;2022-12-15T05:45:24;84.50;;;38.60;;
57325;SDS011;43161;50.950;18.224;2022-12-15T05:47:51;86.90;;;39.20;;
57325;SDS011;43161;50.950;18.224;2022-12-15T05:50:17;87.40;;;40.80;;
57325;SDS011;43161;50.950;18.224;2022-12-15T05:52:43;87.20;;;40.70;;
57325;SDS011;43161;50.950;18.224;2022-12-15T05:55:09;87.00;;;39.40;;
57325;SDS011;43161;50.950;18.224;2022-12-15T05:57:34;87.30;;;40.90;;
57325;SDS011;43161;50.950;18.224;2022-12-15T06:00:00;94.80;;;40.20;;
57325;SDS011;43161;50.950;18.224;2022-12-15T06:02:28;94.00;;;34.00;;
57325;SDS011;43161;50.950;18.224;2022-12-15T06:04:54;96.30;;;40.10;;
57325;SDS011;43161;50.950;18.224;2022-12-15T06:07:20;87.50;;;35.80;;
57325;SDS011;43161;50.950;18.224;2022-12-15T06:09:46;95.00;;;38.30;;
57325;SDS011;43161;50.950;18.224;2022-12-15T06:12:11;84.90;;;37.30;;
57325;SDS011;43161;50.950;18.224;2022-12-15T06:14:37;79.20;;;35.30;;
57325;SDS011;43161;50.950;18.224;2022-12-15T06:17:03;95.10;;;41.70;;
57325;SDS011;43161;50.950;18.224;2022-12-15T06:19:28;90.30;;;40.80;;
57325;SDS011;43161;50.950;18.224;2022-12-15T06:21:54;86.60;;;37.60;;
57325;SDS011;43161;50.950;18.224;2022-12-15T06:24:19;93.20;;;41.50;;
57325;SDS011;43161;50.950;18.224;2022-12-15T06:26:45;112.10;;;56.90;;
57325;SDS011;43161;50.950;18.224;2022-12-15T06:29:11;133.90;;;68.40;;
57325;SDS011;43161;50.950;18.224;2022-12-15T06:31:37;153.60;;;84.90;;
57325;SDS011;43161;50.950;18.224;2022-12-15T06:34:05;130.90;;;65.30;;
57325;SDS011;43161;50.950;18.224;2022-12-15T06:36:32;106.30;;;56.50;;
57325;SDS011;43161;50.950;18.224;2022-12-15T06:38:58;83.90;;;36.00;;
57325;SDS011;43161;50.950;18.224;2022-12-15T06:41:25;91.70;;;39.00;;
57325;SDS011;43161;50.950;18.224;2022-12-15T06:43:52;402.80;;;132.70;;
57325;SDS011;43161;50.950;18.224;2022-12-15T06:46:22;196.10;;;65.90;;
57325;SDS011;43161;50.950;18.224;2022-12-15T06:48:48;95.50;;;37.80;;
57325;SDS011;43161;50.950;18.224;2022-12-15T06:51:14;96.80;;;40.40;;
57325;SDS011;43161;50.950;18.224;2022-12-15T06:53:45;90.10;;;38.70;;
57325;SDS011;43161;50.950;18.224;2022-12-15T06:56:16;74.40;;;33.00;;
57325;SDS011;43161;50.950;18.224;2022-12-15T06:58:45;84.20;;;38.40;;
57325;SDS011;43161;50.950;18.224;2022-12-15T07:01:12;87.40;;;34.30;;
57325;SDS011;43161;50.950;18.224;2022-12-15T07:03:43;82.00;;;35.40;;
57325;SDS011;43161;50.950;18.224;2022-12-15T07:06:10;80.50;;;33.40;;
57325;SDS011;43161;50.950;18.224;2022-12-15T07:08:36;96.30;;;39.40;;
57325;SDS011;43161;50.950;18.224;2022-12-15T07:11:03;91.30;;;43.50;;
57325;SDS011;43161;50.950;18.224;2022-12-15T07:13:30;85.60;;;37.90;;
57325;SDS011;43161;50.950;18.224;2022-12-15T07:15:59;81.30;;;37.60;;
57325;SDS011;43161;50.950;18.224;2022-12-15T07:18:25;82.00;;;32.80;;
57325;SDS011;43161;50.950;18.224;2022-12-15T07:20:51;112.40;;;43.60;;
57325;SDS011;43161;50.950;18.224;2022-12-15T07:23:16;136.40;;;49.90;;
57325;SDS011;43161;50.950;18.224;2022-12-15T07:25:42;78.60;;;32.90;;
57325;SDS011;43161;50.950;18.224;2022-12-15T07:28:10;76.10;;;35.40;;
57325;SDS011;43161;50.950;18.224;2022-12-15T07:30:36;90.70;;;37.10;;
57325;SDS011;43161;50.950;18.224;2022-12-15T07:33:02;77.80;;;35.50;;
57325;SDS011;43161;50.950;18.224;2022-12-15T07:35:29;89.40;;;38.40;;
57325;SDS011;43161;50.950;18.224;2022-12-15T07:37:55;79.20;;;35.10;;
57325;SDS011;43161;50.950;18.224;2022-12-15T07:40:20;77.80;;;34.80;;
57325;SDS011;43161;50.950;18.224;2022-12-15T07:42:46;71.90;;;32.40;;
57325;SDS011;43161;50.950;18.224;2022-12-15T07:45:12;71.60;;;29.70;;
57325;SDS011;43161;50.950;18.224;2022-12-15T07:47:38;74.80;;;34.00;;
57325;SDS011;43161;50.950;18.224;2022-12-15T07:50:05;65.30;;;30.80;;
57325;SDS011;43161;50.950;18.224;2022-12-15T07:52:31;79.00;;;35.10;;
57325;SDS011;43161;50.950;18.224;2022-12-15T07:54:56;70.80;;;32.70;;
57325;SDS011;43161;50.950;18.224;2022-12-15T07:57:22;67.40;;;30.50;;
57325;SDS011;43161;50.950;18.224;2022-12-15T07:59:48;69.60;;;32.20;;
57325;SDS011;43161;50.950;18.224;2022-12-15T08:02:15;76.00;;;33.70;;
57325;SDS011;43161;50.950;18.224;2022-12-15T08:04:40;64.30;;;31.60;;
57325;SDS011;43161;50.950;18.224;2022-12-15T08:07:06;67.00;;;31.90;;
57325;SDS011;43161;50.950;18.224;2022-12-15T08:09:33;79.00;;;32.80;;
57325;SDS011;43161;50.950;18.224;2022-12-15T08:11:59;67.60;;;30.90;;
57325;SDS011;43161;50.950;18.224;2022-12-15T08:14:25;240.10;;;84.50;;
57325;SDS011;43161;50.950;18.224;2022-12-15T08:16:53;63.20;;;30.10;;
57325;SDS011;43161;50.950;18.224;2022-12-15T08:19:18;63.60;;;28.20;;
57325;SDS011;43161;50.950;18.224;2022-12-15T08:21:44;59.20;;;28.50;;
57325;SDS011;43161;50.950;18.224;2022-12-15T08:24:11;55.60;;;27.00;;
57325;SDS011;43161;50.950;18.224;2022-12-15T08:26:38;105.90;;;42.00;;
57325;SDS011;43161;50.950;18.224;2022-12-15T08:29:05;108.60;;;46.20;;
57325;SDS011;43161;50.950;18.224;2022-12-15T08:31:32;85.40;;;38.50;;
57325;SDS011;43161;50.950;18.224;2022-12-15T08:33:59;61.60;;;25.00;;
57325;SDS011;43161;50.950;18.224;2022-12-15T08:36:26;57.00;;;25.80;;
57325;SDS011;43161;50.950;18.224;2022-12-15T08:38:52;55.10;;;26.60;;
57325;SDS011;43161;50.950;18.224;2022-12-15T08:41:24;52.50;;;25.20;;
57325;SDS011;43161;50.950;18.224;2022-12-15T08:43:52;53.20;;;22.80;;
57325;SDS011;43161;50.950;18.224;2022-12-15T08:46:19;59.40;;;24.50;;
57325;SDS011;43161;50.950;18.224;2022-12-15T08:48:47;60.50;;;25.40;;
57325;SDS011;43161;50.950;18.224;2022-12-15T08:51:13;53.10;;;24.20;;
57325;SDS011;43161;50.950;18.224;2022-12-15T08:53:39;65.70;;;35.80;;
57325;SDS011;43161;50.950;18.224;2022-12-15T08:56:05;46.60;;;18.60;;
57325;SDS011;43161;50.950;18.224;2022-12-15T08:58:33;58.50;;;24.30;;
57325;SDS011;43161;50.950;18.224;2022-12-15T09:01:00;74.80;;;28.90;;
57325;SDS011;43161;50.950;18.224;2022-12-15T09:03:26;66.30;;;26.60;;
57325;SDS011;43161;50.950;18.224;2022-12-15T09:05:51;79.60;;;28.70;;
57325;SDS011;43161;50.950;18.224;2022-12-15T09:08:17;68.90;;;24.70;;
57325;SDS011;43161;50.950;18.224;2022-12-15T09:10:43;91.00;;;30.80;;
57325;SDS011;43161;50.950;18.224;2022-12-15T09:13:08;79.70;;;29.40;;
57325;SDS011;43161;50.950;18.224;2022-12-15T09:15:34;47.50;;;20.80;;
57325;SDS011;43161;50.950;18.224;2022-12-15T09:17:59;56.90;;;23.80;;
57325;SDS011;43161;50.950;18.224;2022-12-15T09:20:25;74.90;;;29.80;;
57325;SDS011;43161;50.950;18.224;2022-12-15T09:22:50;72.00;;;27.60;;
57325;SDS011;43161;50.950;18.224;2022-12-15T09:25:16;72.10;;;26.70;;
57325;SDS011;43161;50.950;18.224;2022-12-15T09:27:41;54.70;;;22.80;;
57325;SDS011;43161;50.950;18.224;2022-12-15T09:30:07;50.50;;;21.80;;
57325;SDS011;43161;50.950;18.224;2022-12-15T09:32:33;47.50;;;20.00;;
57325;SDS011;43161;50.950;18.224;2022-12-15T09:34:59;44.30;;;20.20;;
57325;SDS011;43161;50.950;18.224;2022-12-15T09:37:25;43.70;;;18.70;;
57325;SDS011;43161;50.950;18.224;2022-12-15T09:39:50;45.30;;;19.20;;
57325;SDS011;43161;50.950;18.224;2022-12-15T09:42:37;43.90;;;18.40;;
57325;SDS011;43161;50.950;18.224;2022-12-15T09:45:04;49.30;;;19.40;;
57325;SDS011;43161;50.950;18.224;2022-12-15T09:47:36;50.10;;;21.60;;
57325;SDS011;43161;50.950;18.224;2022-12-15T09:50:07;50.90;;;20.00;;
57325;SDS011;43161;50.950;18.224;2022-12-15T09:55:16;72.80;;;29.30;;
57325;SDS011;43161;50.950;18.224;2022-12-15T10:06:09;51.40;;;24.50;;
57325;SDS011;43161;50.950;18.224;2022-12-15T10:17:04;44.60;;;21.80;;
57325;SDS011;43161;50.950;18.224;2022-12-15T10:22:40;62.10;;;27.10;;
57325;SDS011;43161;50.950;18.224;2022-12-15T10:28:02;46.80;;;20.80;;
57325;SDS011;43161;50.950;18.224;2022-12-15T10:30:56;37.00;;;14.30;;
57325;SDS011;43161;50.950;18.224;2022-12-15T10:33:24;33.10;;;13.10;;
57325;SDS011;43161;50.950;18.224;2022-12-15T10:35:52;54.30;;;27.50;;
57325;SDS011;43161;50.950;18.224;2022-12-15T10:38:40;45.80;;;18.40;;
57325;SDS011;43161;50.950;18.224;2022-12-15T10:41:18;62.00;;;25.10;;
57325;SDS011;43161;50.950;18.224;2022-12-15T10:43:46;44.90;;;22.40;;
57325;SDS011;43161;50.950;18.224;2022-12-15T10:46:14;45.60;;;20.30;;
57325;SDS011;43161;50.950;18.224;2022-12-15T10:48:46;34.60;;;14.80;;
57325;SDS011;43161;50.950;18.224;2022-12-15T10:51:16;41.60;;;18.00;;
57325;SDS011;43161;50.950;18.224;2022-12-15T10:53:44;38.40;;;16.10;;
57325;SDS011;43161;50.950;18.224;2022-12-15T10:56:19;39.00;;;17.30;;
57325;SDS011;43161;50.950;18.224;2022-12-15T10:58:50;42.60;;;16.50;;
57325;SDS011;43161;50.950;18.224;2022-12-15T11:01:25;36.40;;;14.30;;
57325;SDS011;43161;50.950;18.224;2022-12-15T11:03:52;39.40;;;16.80;;
57325;SDS011;43161;50.950;18.224;2022-12-15T11:06:20;34.00;;;13.50;;
57325;SDS011;43161;50.950;18.224;2022-12-15T11:08:46;37.50;;;14.00;;
57325;SDS011;43161;50.950;18.224;2022-12-15T11:14:19;38.80;;;16.60;;
57325;SDS011;43161;50.950;18.224;2022-12-15T11:16:50;47.40;;;21.40;;
57325;SDS011;43161;50.950;18.224;2022-12-15T11:21:50;42.10;;;19.00;;
57325;SDS011;43161;50.950;18.224;2022-12-15T11:29:56;141.50;;;43.30;;
57325;SDS011;43161;50.950;18.224;2022-12-15T11:32:27;52.10;;;21.30;;
57325;SDS011;43161;50.950;18.224;2022-12-15T11:34:55;43.40;;;20.50;;
57325;SDS011;43161;50.950;18.224;2022-12-15T11:40:16;45.00;;;19.80;;
57325;SDS011;43161;50.950;18.224;2022-12-15T11:42:49;68.30;;;26.40;;
57325;SDS011;43161;50.950;18.224;2022-12-15T11:48:21;37.30;;;18.20;;
57325;SDS011;43161;50.950;18.224;2022-12-15T12:07:34;37.10;;;17.30;;
57325;SDS011;43161;50.950;18.224;2022-12-15T12:15:50;37.40;;;17.70;;
57325;SDS011;43161;50.950;18.224;2022-12-15T12:18:23;39.50;;;17.60;;
57325;SDS011;43161;50.950;18.224;2022-12-15T12:20:55;42.20;;;20.90;;
57325;SDS011;43161;50.950;18.224;2022-12-15T12:31:25;61.30;;;29.70;;
57325;SDS011;43161;50.950;18.224;2022-12-15T12:33:57;46.90;;;22.50;;
57325;SDS011;43161;50.950;18.224;2022-12-15T12:36:27;43.10;;;18.40;;
57325;SDS011;43161;50.950;18.224;2022-12-15T12:38:53;38.20;;;18.20;;
57325;SDS011;43161;50.950;18.224;2022-12-15T12:44:03;39.40;;;19.00;;
57325;SDS011;43161;50.950;18.224;2022-12-15T12:46:51;46.90;;;20.70;;
57325;SDS011;43161;50.950;18.224;2022-12-15T12:51:51;121.10;;;52.10;;
57325;SDS011;43161;50.950;18.224;2022-12-15T12:57:22;224.10;;;73.20;;
57325;SDS011;43161;50.950;18.224;2022-12-15T13:10:18;42.90;;;18.30;;
57325;SDS011;43161;50.950;18.224;2022-12-15T13:12:52;47.80;;;19.30;;
57325;SDS011;43161;50.950;18.224;2022-12-15T13:20:36;74.00;;;27.10;;
57325;SDS011;43161;50.950;18.224;2022-12-15T13:28:25;54.20;;;21.50;;
57325;SDS011;43161;50.950;18.224;2022-12-15T13:39:29;42.40;;;19.40;;
57325;SDS011;43161;50.950;18.224;2022-12-15T13:46:51;104.30;;;36.90;;
57325;SDS011;43161;50.950;18.224;2022-12-15T13:52:11;66.00;;;28.30;;
57325;SDS011;43161;50.950;18.224;2022-12-15T13:54:43;46.60;;;19.00;;
57325;SDS011;43161;50.950;18.224;2022-12-15T13:57:13;57.40;;;22.30;;
57325;SDS011;43161;50.950;18.224;2022-12-15T13:59:41;60.90;;;24.70;;
57325;SDS011;43161;50.950;18.224;2022-12-15T14:10:05;56.10;;;24.40;;
57325;SDS011;43161;50.950;18.224;2022-12-15T14:12:32;99.70;;;35.90;;
57325;SDS011;43161;50.950;18.224;2022-12-15T14:14:58;110.00;;;39.80;;
57325;SDS011;43161;50.950;18.224;2022-12-15T14:17:24;90.80;;;34.40;;
57325;SDS011;43161;50.950;18.224;2022-12-15T14:19:49;95.60;;;40.20;;
57325;SDS011;43161;50.950;18.224;2022-12-15T14:25:01;87.40;;;38.50;;
57325;SDS011;43161;50.950;18.224;2022-12-15T14:27:33;113.20;;;47.80;;
57325;SDS011;43161;50.950;18.224;2022-12-15T14:38:15;108.60;;;41.50;;
57325;SDS011;43161;50.950;18.224;2022-12-15T14:40:42;107.20;;;43.50;;
57325;SDS011;43161;50.950;18.224;2022-12-15T14:43:10;108.10;;;46.20;;
57325;SDS011;43161;50.950;18.224;2022-12-15T14:45:49;105.30;;;46.60;;
57325;SDS011;43161;50.950;18.224;2022-12-15T14:48:25;127.50;;;48.00;;
57325;SDS011;43161;50.950;18.224;2022-12-15T14:50:56;117.20;;;44.90;;
57325;SDS011;43161;50.950;18.224;2022-12-15T14:53:23;107.00;;;42.20;;
57325;SDS011;43161;50.950;18.224;2022-12-15T14:55:50;94.50;;;40.00;;
57325;SDS011;43161;50.950;18.224;2022-12-15T15:01:01;88.90;;;37.50;;
57325;SDS011;43161;50.950;18.224;2022-12-15T15:03:34;108.00;;;45.20;;
57325;SDS011;43161;50.950;18.224;2022-12-15T15:06:13;102.30;;;43.60;;
57325;SDS011;43161;50.950;18.224;2022-12-15T15:08:44;151.40;;;58.30;;
57325;SDS011;43161;50.950;18.224;2022-12-15T15:13:59;137.10;;;66.80;;
57325;SDS011;43161;50.950;18.224;2022-12-15T15:16:28;130.50;;;63.10;;
57325;SDS011;43161;50.950;18.224;2022-12-15T15:18:54;140.60;;;67.90;;
57325;SDS011;43161;50.950;18.224;2022-12-15T15:21:21;151.80;;;68.00;;
57325;SDS011;43161;50.950;18.224;2022-12-15T15:26:35;131.20;;;55.00;;
57325;SDS011;43161;50.950;18.224;2022-12-15T15:29:02;138.50;;;56.20;;
57325;SDS011;43161;50.950;18.224;2022-12-15T15:31:36;183.60;;;67.00;;
57325;SDS011;43161;50.950;18.224;2022-12-15T15:34:02;148.40;;;56.40;;
57325;SDS011;43161;50.950;18.224;2022-12-15T15:36:31;145.10;;;58.30;;
57325;SDS011;43161;50.950;18.224;2022-12-15T15:38:59;135.80;;;57.00;;
57325;SDS011;43161;50.950;18.224;2022-12-15T15:41:27;151.00;;;65.20;;
57325;SDS011;43161;50.950;18.224;2022-12-15T15:43:54;148.80;;;63.80;;
57325;SDS011;43161;50.950;18.224;2022-12-15T15:46:21;161.80;;;79.20;;
57325;SDS011;43161;50.950;18.224;2022-12-15T15:48:54;169.00;;;79.00;;
57325;SDS011;43161;50.950;18.224;2022-12-15T15:51:25;118.40;;;51.10;;
57325;SDS011;43161;50.950;18.224;2022-12-15T15:53:52;99.80;;;43.40;;
57325;SDS011;43161;50.950;18.224;2022-12-15T15:56:20;151.50;;;53.30;;
57325;SDS011;43161;50.950;18.224;2022-12-15T15:58:45;524.00;;;181.30;;
57325;SDS011;43161;50.950;18.224;2022-12-15T16:01:11;519.00;;;177.20;;
57325;SDS011;43161;50.950;18.224;2022-12-15T16:03:37;268.00;;;78.70;;
57325;SDS011;43161;50.950;18.224;2022-12-15T16:06:03;158.10;;;51.70;;
57325;SDS011;43161;50.950;18.224;2022-12-15T16:08:31;93.70;;;37.00;;
57325;SDS011;43161;50.950;18.224;2022-12-15T16:10:59;81.70;;;34.50;;
57325;SDS011;43161;50.950;18.224;2022-12-15T16:13:25;81.40;;;35.60;;
57325;SDS011;43161;50.950;18.224;2022-12-15T16:15:52;80.80;;;33.20;;
57325;SDS011;43161;50.950;18.224;2022-12-15T16:18:18;92.90;;;39.80;;
57325;SDS011;43161;50.950;18.224;2022-12-15T16:20:45;86.70;;;36.30;;
57325;SDS011;43161;50.950;18.224;2022-12-15T16:23:14;92.10;;;38.50;;
57325;SDS011;43161;50.950;18.224;2022-12-15T16:25:41;129.60;;;48.20;;
57325;SDS011;43161;50.950;18.224;2022-12-15T16:28:10;104.60;;;41.40;;
57325;SDS011;43161;50.950;18.224;2022-12-15T16:30:40;131.60;;;51.80;;
57325;SDS011;43161;50.950;18.224;2022-12-15T16:33:06;122.70;;;43.30;;
57325;SDS011;43161;50.950;18.224;2022-12-15T16:35:32;152.90;;;52.80;;
57325;SDS011;43161;50.950;18.224;2022-12-15T16:37:57;118.40;;;43.00;;
57325;SDS011;43161;50.950;18.224;2022-12-15T16:40:24;130.10;;;47.00;;
57325;SDS011;43161;50.950;18.224;2022-12-15T16:42:55;177.20;;;67.60;;
57325;SDS011;43161;50.950;18.224;2022-12-15T16:45:21;178.10;;;70.20;;
57325;SDS011;43161;50.950;18.224;2022-12-15T16:47:49;140.40;;;57.50;;
57325;SDS011;43161;50.950;18.224;2022-12-15T16:50:15;166.00;;;57.30;;
57325;SDS011;43161;50.950;18.224;2022-12-15T16:52:43;146.30;;;53.40;;
57325;SDS011;43161;50.950;18.224;2022-12-15T16:55:30;170.20;;;61.40;;
57325;SDS011;43161;50.950;18.224;2022-12-15T16:57:57;169.60;;;59.00;;
57325;SDS011;43161;50.950;18.224;2022-12-15T17:00:26;160.00;;;58.80;;
57325;SDS011;43161;50.950;18.224;2022-12-15T17:02:53;141.80;;;54.00;;
57325;SDS011;43161;50.950;18.224;2022-12-15T17:05:19;167.70;;;58.30;;
57325;SDS011;43161;50.950;18.224;2022-12-15T17:07:48;140.40;;;48.90;;
57325;SDS011;43161;50.950;18.224;2022-12-15T17:10:17;136.40;;;46.00;;
57325;SDS011;43161;50.950;18.224;2022-12-15T17:12:45;133.30;;;38.80;;
57325;SDS011;43161;50.950;18.224;2022-12-15T17:15:15;103.50;;;35.00;;
57325;SDS011;43161;50.950;18.224;2022-12-15T17:17:41;113.40;;;37.80;;
57325;SDS011;43161;50.950;18.224;2022-12-15T17:20:08;75.10;;;27.60;;
57325;SDS011;43161;50.950;18.224;2022-12-15T17:22:40;60.30;;;22.30;;
57325;SDS011;43161;50.950;18.224;2022-12-15T17:25:07;60.10;;;22.40;;
57325;SDS011;43161;50.950;18.224;2022-12-15T17:27:37;57.00;;;24.10;;